Etusivu
METAR-TAF:

METAR-TAF

Lentoasemat :

Nuevo Laredo, Meksiko

Leveyspiiri: 27-26N, Pituuspiiri: 099-34W, korkeus merenpinnasta: 148 m

Tämänhetkinen sää

Tämä raportti tehtiin 47 minuuttia sitten, kello 18.40 UTC
Tuuli 10 kn idästä
Lämpötila 36°C
Kosteus 47%
Ilmanpaine 1009 hPa
Näkyvyys: 16.1 km
Hajanaisia pilviä 3000 ft:n korkeudessa

METAR: MMNL 241840Z 10010KT 10SM SCT030 36/23 A2981 RMK 8/500

Aika: 14:27 (19:27 UTC)

Sääennuste

Tämä raportti tehtiin 1 tunti ja 53 minuuttia sitten, kello 17.34 UTC
Ennuste voimassa 24. päivästä klo 18 UTC - 25. päivään klo 18 UTC
Tuuli 12 kn kaakosta
Näkyvyys: 10 km
Hajonneita pilviä 3000 ft:n korkeudessa
From 25. päivästä klo 0200 UTC
Tuuli 10 kn kaakosta
Näkyvyys: 10 km
Hajonneita pilviä 2000 ft:n korkeudessa
Hajonneita pilviä 18000 ft:n korkeudessa

TAF: MMNL 241734Z 2418/2518 14012KT P6SM BKN030 FM250200 14010KT P6SM BKN020 BKN180

Säähavainnot ja -ennusteet yli 4000 lentoasemalta (METAR- ja TAF-raportit).

Käytössä olevat sääasemat on merkitty karttaan keltaisilla ja punaisilla pisteillä.

Aseta hiiri pisteen päälle nähdäksesi sääaseman nimen.

Klikkaa sitten nähdäksesi säähavainnot ja -ennusteet.

Kartan vaihtaminen: klikkaa mustalla rastilla varustettuja vihreitä pisteitä, niin voit zoomata sisään; viivalla varustettua vihreää pistettä, niin voit zoomata ulos tai vihreitä nuolia, niin pääset viereisille kartoille.


METAR-TAF: